Farson, Iowa
Current Conditions -  °F | °C
As of 11:15 AM on Sunday 21 Dec 2014 (Local Time) from KOOA Reporting Station
Haze Haze  
Wind Chill: 31°   Ceiling: 1800
Heat Index: 39°   Visibility: 5mi
Dew Point: 36°   Wind: 14mph
Humidity: 89%   Direction: 170°S
Pressure: 29.99"   Gusts: NA
Location:  41.2094°N, 92.3382°W
Report Text: KOOA 211715Z AUTO 17012KT 5SM BR OVC018 04/02 A2999 RMK AO2 T00380021
Loading
Personal Weather Stations






























Interactive Weather Map New forecast layout! Learn more

10-Day Weather Forecast

Advertisements
Track Severe Weather on mobile